PMDY METAR and TAF weather

Enter ICAO airport designator
Station Type Date Time Source
PMDY METAR 2021/02/27 20:56 UTC NOAA

PMDY 272056Z AUTO 06021G24KT 5SM BR OVC009 20/18 A3032 RMK AO2 PK WND 07027/2048 CIG 007V012 SLP267 T02000183 50016


Station Type Date Time Source
PMDY Decoded METAR 2021/02/27 20:56 UTC NOAA

Sand Island, Henderson Field Airport, HI, United States (PMDY) 28-13N 177-22W 6M
Feb 27, 2021 - 03:56 PM EST / 2021.02.27 2056 UTC
Wind: from the ENE (060 degrees) at 24 MPH (21 KT) gusting to 28 MPH (24 KT):0
Visibility: 5 mile(s):0
Sky conditions: overcast
Weather: mist
Temperature: 68.0 F (20.0 C)
Dew Point: 64.9 F (18.3 C)
Relative Humidity: 89%
Pressure (altimeter): 30.32 in. Hg (1026 hPa)
Pressure tendency: 0.05 inches (1.6 hPa) higher than three hours ago
ob: PMDY 272056Z AUTO 06021G24KT 5SM BR OVC009 20/18 A3032 RMK AO2 PK WND 07027/2048 CIG 007V012 SLP267 T02000183 50016
cycle: 21

Station Type Date Time Source
PMDY TAF 2021/02/27 18:33 UTC NOAA

TAF PMDY 271730Z 2718/2818 06018G28KT P6SM VCSH BKN010 OVC025
FM280500 10014KT P6SM VCSH BKN025 OVC040

Example: see airport list